Flight Track Log - Related Links

Times and Time Zones

All times are in EDT time to prevent confusion due to time zone crossing. See the SWA22 flight status page for this flight to view local times or setup timezone preferences in your user account.

Time Position Orientation Groundspeed Altitude Reporting Facility
EDT Latitude Longitude Course Direction KTS MPH feet Rate Location/Type
Fri 01:03:06 PM 29.6564 -95.2672 15° North 155 178 700  Level Houston Center
Fri 01:03:25 PM 29.6686 -95.2633 15° North 161 185 1,400 2,250 Climbing Houston Center
Fri 01:04:26 PM 29.7283 -95.2731 352° North 241 277 3,700 2,655 Climbing Houston Center
Fri 01:05:18 PM 29.7844 -95.2908 345° North 258 297 6,400 3,105 Climbing Houston Center
Fri 01:06:20 PM 29.8622 -95.3097 348° North 280 322 9,600 2,806 Climbing Houston Center
Fri 01:07:22 PM 29.9472 -95.3303 348° North 308 354 12,200 2,613 Climbing Houston Center
Fri 01:08:24 PM 30.0372 -95.3542 347° North 329 379 15,000 2,613 Climbing Houston Center
Fri 01:09:26 PM 30.1542 -95.3828 348° North 356 410 17,600 2,323 Climbing Houston Center
Fri 01:10:28 PM 30.2572 -95.4083 348° North 375 432 19,800 2,081 Climbing Houston Center
Fri 01:11:30 PM 30.3642 -95.4347 348° North 389 448 21,900 1,920 Climbing Houston Center
Fri 01:12:33 PM 30.4733 -95.4611 348° North 398 458 23,800 1,824 Climbing Houston Center
Fri 01:13:35 PM 30.5847 -95.4869 349° North 408 470 25,700 1,645 Climbing Houston Center
Fri 01:14:37 PM 30.7172 -95.5169 349° North 421 484 27,200 1,548 Climbing Houston Center
Fri 01:15:39 PM 30.8378 -95.5436 349° North 434 499 28,900 1,452 Climbing Houston Center
Fri 01:16:41 PM 30.9589 -95.5711 349° North 439 505 30,200 1,500 Climbing Houston Center
Fri 01:17:43 PM 31.0794 -95.5989 349° North 439 505 32,000 871 Climbing Houston Center
Fri 01:18:45 PM 31.2011 -95.6267 349° North 439 505 32,000  Level Houston Center
Fri 01:19:55 PM 31.3600 -95.6667 348° North 434 499 32,000  Level Fort Worth Center
Fri 01:20:56 PM 31.4653 -95.7303 333° Northwest 422 486 32,000 -950 Level Fort Worth Center
Fri 01:21:55 PM 31.5642 -95.7994 329° Northwest 422 486 30,100 -2,319 Descending Fort Worth Center
Fri 01:22:55 PM 31.6653 -95.8683 330° Northwest 422 486 27,400 -2,400 Descending Fort Worth Center
Fri 01:23:55 PM 31.7517 -95.9303 329° Northwest 410 472 25,300 -2,350 Descending Fort Worth Center
Fri 01:24:55 PM 31.8567 -95.9972 332° Northwest 395 455 22,700 -2,400 Descending Fort Worth Center
Fri 01:25:55 PM 31.9450 -96.0569 330° Northwest 379 436 20,500 -2,150 Descending Fort Worth Center
Fri 01:26:55 PM 32.0292 -96.1122 331° Northwest 359 413 18,400 -2,050 Descending Fort Worth Center
Fri 01:27:55 PM 32.1092 -96.1675 330° Northwest 338 389 16,400 -1,950 Descending Fort Worth Center
Fri 01:28:55 PM 32.1558 -96.2528 303° West 316 364 14,500 -2,200 Descending Fort Worth Center
Fri 01:29:55 PM 32.2336 -96.3008 332° Northwest 302 348 12,000 -2,000 Descending Fort Worth Center
Fri 01:30:55 PM 32.3172 -96.3269 345° North 302 348 10,500 -1,400 Descending Fort Worth Center
Fri 01:31:55 PM 32.3928 -96.3556 342° North 296 341 9,200 -744 Descending Fort Worth Center
Fri 01:32:56 PM 32.4661 -96.3892 339° North 281 323 9,000 -450 Descending Fort Worth Center
Fri 01:33:55 PM 32.5353 -96.4303 333° Northwest 271 312 8,300 -908 Descending Fort Worth Center
Fri 01:34:55 PM 32.6044 -96.4714 333° Northwest 276 318 7,200 -992 Descending Fort Worth Center
Fri 01:35:56 PM 32.6736 -96.5125 333° Northwest 281 323 6,300 -1,000 Descending Fort Worth Center
Fri 01:36:55 PM 32.7283 -96.5739 317° Northwest 276 318 5,200 -1,008 Descending Fort Worth Center
Fri 01:37:55 PM 32.7808 -96.6350 316° Northwest 270 311 4,300 -846 Descending Fort Worth Center
Fri 01:38:13 PM 32.8000 -96.6500 327° Northwest 265 305 4,100 -231 Descending Dallas / Fort Worth TRACON
Fri 01:39:13 PM 32.8500 -96.7167 312° West 259 298 4,000 -50 Descending Dallas / Fort Worth TRACON
Fri 01:40:13 PM 32.9000 -96.7667 320° Northwest 243 280 4,000  Level Dallas / Fort Worth TRACON
Fri 01:41:13 PM 32.9500 -96.8167 320° Northwest 222 255 4,000 -496 Level Dallas / Fort Worth TRACON
Fri 01:42:14 PM 32.9667 -96.8833 287° West 227 261 3,000 -992 Descending Dallas / Fort Worth TRACON
Fri 01:43:14 PM 32.9333 -96.9333 232° Southwest 229 264 2,000 -684 Descending Dallas / Fort Worth TRACON
Fri 01:44:08 PM 32.8833 -96.9167 164° South 189 217 1,700 -579 Descending Dallas / Fort Worth TRACON
Fri 01:45:08 PM 32.8667 -96.8833 121° Southeast 141 162 900 -800 Descending Dallas / Fort Worth TRACON
Fri 01:47:00 PM 32.8471 -96.8518 168° South  Level Estimated

Login

Don't have an account? Register now (free) for customized features, flight alerts, and more!